Time;durP1;ratioP1;P1;durP2;ratioP2;P2;SDS_P1;SDS_P2;PMS_P1;PMS_P2;Temp;Humidity;BMP_temperature;BMP_pressure;BME280_temperature;BME280_humidity;BME280_pressure;Samples;Min_cycle;Max_cycle;Signal;HPM_P1;HPM_P2
2022/10/17 00:00:14;;;;;;;15.50;12.90;;;;;;;15.44;82.82;101042.05;126885;1278;107392;-76
2022/10/17 00:03:41;;;;;;;14.30;12.40;;;;;;;15.46;82.92;101042.14;127049;1279;110009;-77
2022/10/17 00:06:46;;;;;;;14.20;11.80;;;;;;;15.45;82.81;101047.10;127209;1285;106656;-77
2022/10/17 00:09:52;;;;;;;18.20;12.80;;;;;;;15.46;82.95;101054.55;127152;1279;107293;-77
2022/10/17 00:12:57;;;;;;;17.20;12.10;;;;;;;15.46;82.83;101056.50;127108;1278;107454;-77
2022/10/17 00:16:03;;;;;;;15.20;12.20;;;;;;;15.48;82.92;101061.95;126970;1271;107440;-77
2022/10/17 00:19:08;;;;;;;14.90;12.30;;;;;;;15.50;83.05;101064.02;127019;1286;108007;-77
2022/10/17 00:22:14;;;;;;;15.20;13.10;;;;;;;15.52;83.00;101060.14;126885;1278;108476;-79
2022/10/17 00:25:20;;;;;;;16.40;13.20;;;;;;;15.48;82.98;101061.41;126921;1276;107014;-76
2022/10/17 00:28:25;;;;;;;15.80;12.10;;;;;;;15.46;83.01;101069.00;127020;1297;107379;-76
2022/10/17 00:31:30;;;;;;;13.50;10.90;;;;;;;15.45;83.06;101070.75;127155;1280;107537;-77
2022/10/17 00:34:36;;;;;;;15.80;12.20;;;;;;;15.45;83.15;101071.60;126828;1286;107502;-76
2022/10/17 00:37:41;;;;;;;15.60;13.30;;;;;;;15.48;83.04;101071.87;126949;1285;107354;-76
2022/10/17 00:40:46;;;;;;;17.30;12.60;;;;;;;15.50;83.01;101067.20;127129;1284;107620;-76
2022/10/17 00:43:57;;;;;;;17.60;13.70;;;;;;;15.50;82.95;101067.16;127129;1278;107552;-77
2022/10/17 00:47:06;;;;;;;16.10;13.40;;;;;;;15.49;83.12;101066.89;127118;1279;107229;-76
2022/10/17 00:50:15;;;;;;;16.10;12.30;;;;;;;15.47;83.21;101063.02;127153;1279;107471;-77
2022/10/17 00:53:20;;;;;;;15.10;11.70;;;;;;;15.45;83.21;101063.21;126962;1271;105628;-76
2022/10/17 00:56:26;;;;;;;18.30;13.10;;;;;;;15.45;83.09;101056.73;126873;1279;107727;-76
2022/10/17 00:59:35;;;;;;;15.20;12.90;;;;;;;15.46;83.02;101050.91;127001;1279;107344;-76
2022/10/17 01:02:41;;;;;;;17.90;13.60;;;;;;;15.46;83.11;101040.70;127076;1272;107281;-77
2022/10/17 01:05:47;;;;;;;17.00;13.30;;;;;;;15.44;82.88;101039.81;126897;1278;107184;-76
2022/10/17 01:08:53;;;;;;;17.90;14.70;;;;;;;15.40;82.95;101037.73;126902;1278;107538;-76
2022/10/17 01:12:07;;;;;;;16.30;12.90;;;;;;;15.32;83.00;101035.19;126868;1278;105843;-76
2022/10/17 01:15:25;;;;;;;17.10;12.40;;;;;;;15.24;82.90;101037.80;127146;1278;107276;-76
2022/10/17 01:18:44;;;;;;;15.70;12.30;;;;;;;15.17;82.78;101035.22;127100;1279;106115;-76
2022/10/17 01:21:56;;;;;;;16.80;13.60;;;;;;;15.12;82.95;101043.21;127172;1278;107497;-76
2022/10/17 01:25:23;;;;;;;17.60;13.60;;;;;;;15.07;82.87;101045.21;127085;1289;108534;-76
2022/10/17 01:28:51;;;;;;;17.00;13.80;;;;;;;15.00;82.85;101049.72;127177;1279;107492;-77
2022/10/17 01:32:01;;;;;;;19.40;14.40;;;;;;;14.90;83.04;101053.41;127171;1278;107568;-76
2022/10/17 01:35:14;;;;;;;17.40;13.40;;;;;;;14.80;83.08;101056.44;127050;1278;107487;-77
2022/10/17 01:38:25;;;;;;;14.90;12.30;;;;;;;14.71;83.12;101057.36;126988;1279;107379;-77
2022/10/17 01:41:40;;;;;;;17.70;13.40;;;;;;;14.65;83.24;101053.59;126958;1271;107389;-77
2022/10/17 01:44:51;;;;;;;17.10;13.10;;;;;;;14.62;83.08;101053.32;126910;1286;107368;-77
2022/10/17 01:48:00;;;;;;;21.00;15.10;;;;;;;14.58;83.18;101058.98;126635;1295;106413;-76
2022/10/17 01:51:12;;;;;;;17.60;14.10;;;;;;;14.50;83.03;101069.34;127142;1276;106582;-76
2022/10/17 01:54:23;;;;;;;18.50;14.60;;;;;;;14.43;83.20;101074.95;127120;1286;107503;-76
2022/10/17 01:57:34;;;;;;;17.50;13.40;;;;;;;14.37;82.98;101075.25;126723;1272;107466;-76
2022/10/17 02:00:42;;;;;;;13.90;12.30;;;;;;;14.29;83.03;101072.80;126890;1295;107623;-76
2022/10/17 02:03:51;;;;;;;15.60;12.60;;;;;;;14.24;83.06;101076.22;126880;1286;107493;-74
2022/10/17 02:06:56;;;;;;;17.70;13.40;;;;;;;14.20;83.06;101087.92;126882;1293;107314;-73
2022/10/17 02:10:02;;;;;;;20.00;13.40;;;;;;;14.15;83.01;101083.59;126982;1278;107629;-74
2022/10/17 02:13:16;;;;;;;19.00;13.60;;;;;;;14.12;82.98;101079.03;126788;1286;108558;-75
2022/10/17 02:16:33;;;;;;;19.30;13.30;;;;;;;14.11;82.97;101075.73;126825;1279;107235;-76
2022/10/17 02:19:51;;;;;;;18.00;12.80;;;;;;;14.04;82.83;101076.08;126873;1286;107499;-76
2022/10/17 02:23:02;;;;;;;17.30;11.20;;;;;;;13.95;82.72;101075.73;126865;1278;107090;-74
2022/10/17 02:26:13;;;;;;;14.50;11.70;;;;;;;13.91;82.79;101076.64;126927;1286;107406;-73
2022/10/17 02:29:22;;;;;;;17.00;12.20;;;;;;;13.90;82.98;101076.19;126692;1279;107334;-74
2022/10/17 02:32:34;;;;;;;16.10;11.90;;;;;;;13.90;82.90;101074.48;126979;1279;107510;-74
2022/10/17 02:35:43;;;;;;;15.40;12.90;;;;;;;13.88;82.92;101075.34;126686;1282;107632;-74
2022/10/17 02:38:50;;;;;;;16.40;13.40;;;;;;;13.85;82.78;101073.73;126796;1282;107536;-74
2022/10/17 02:41:59;;;;;;;14.70;11.80;;;;;;;13.78;82.97;101081.88;126845;1280;107642;-74
2022/10/17 02:45:07;;;;;;;14.80;11.60;;;;;;;13.73;82.88;101083.51;126910;1273;107281;-75
2022/10/17 02:48:22;;;;;;;14.60;11.60;;;;;;;13.69;82.99;101082.44;126929;1278;107641;-75
2022/10/17 02:51:36;;;;;;;18.00;13.70;;;;;;;13.67;82.84;101083.85;126900;1286;107537;-75
2022/10/17 02:54:48;;;;;;;29.10;18.70;;;;;;;13.66;82.91;101085.81;126699;1282;107368;-74
2022/10/17 02:57:57;;;;;;;43.40;23.40;;;;;;;13.62;82.91;101091.71;126873;1281;107388;-75
2022/10/17 03:01:04;;;;;;;44.50;23.60;;;;;;;13.58;82.92;101105.86;126826;1286;107362;-74
2022/10/17 03:04:13;;;;;;;44.20;22.60;;;;;;;13.52;82.92;101119.53;126882;1286;107521;-74
2022/10/17 03:07:20;;;;;;;39.20;20.30;;;;;;;13.45;82.89;101134.73;126981;1286;107970;-75
2022/10/17 03:10:26;;;;;;;42.40;22.50;;;;;;;13.40;83.08;101146.41;126790;1296;107507;-74
2022/10/17 03:13:32;;;;;;;37.00;21.80;;;;;;;13.44;82.99;101143.94;126979;1286;107492;-75
2022/10/17 03:16:38;;;;;;;33.60;19.90;;;;;;;13.46;83.07;101144.13;126932;1279;107517;-75
2022/10/17 03:19:44;;;;;;;31.60;18.60;;;;;;;13.47;82.91;101145.55;126772;1286;107458;-77
2022/10/17 03:22:49;;;;;;;25.90;16.50;;;;;;;13.49;83.12;101139.98;126939;1276;107560;-75
2022/10/17 03:25:55;;;;;;;18.90;13.00;;;;;;;13.50;82.95;101137.23;127155;1278;107488;-75
2022/10/17 03:29:00;;;;;;;16.00;12.40;;;;;;;13.47;82.86;101140.73;127003;1278;107526;-75
2022/10/17 03:32:07;;;;;;;18.00;12.40;;;;;;;13.43;82.79;101142.76;126907;1294;107497;-75
2022/10/17 03:35:13;;;;;;;17.20;13.00;;;;;;;13.40;82.85;101140.19;126972;1278;107441;-75
2022/10/17 03:38:18;;;;;;;16.80;13.40;;;;;;;13.40;82.80;101134.01;126761;1274;107560;-75
2022/10/17 03:41:24;;;;;;;21.40;14.20;;;;;;;13.38;82.73;101135.43;126869;1286;107587;-75
2022/10/17 03:44:30;;;;;;;16.60;13.30;;;;;;;13.33;82.86;101141.00;126663;1282;107463;-75
2022/10/17 03:47:35;;;;;;;23.80;13.90;;;;;;;13.28;82.73;101142.39;126689;1281;107648;-75
2022/10/17 03:50:41;;;;;;;16.50;12.50;;;;;;;13.22;82.83;101146.55;126917;1279;107605;-75
2022/10/17 03:53:46;;;;;;;18.00;13.30;;;;;;;13.17;83.00;101147.01;126799;1289;106613;-75
2022/10/17 03:56:52;;;;;;;24.30;14.80;;;;;;;13.14;82.86;101152.80;126810;1272;105522;-75
2022/10/17 03:59:58;;;;;;;21.70;15.70;;;;;;;13.13;82.89;101145.45;127000;1279;107660;-76
2022/10/17 04:03:04;;;;;;;20.10;15.30;;;;;;;13.09;82.97;101137.55;126924;1282;107539;-75
2022/10/17 04:06:12;;;;;;;22.20;15.80;;;;;;;13.07;82.97;101132.79;126893;1287;107497;-75
2022/10/17 04:09:19;;;;;;;21.90;16.30;;;;;;;13.03;83.02;101137.48;127018;1280;107533;-75
2022/10/17 04:12:30;;;;;;;;;;;;;;;12.94;82.88;101132.23;126951;1271;107505;-75
2022/10/17 04:15:35;;;;;;;20.10;14.50;;;;;;;12.90;82.89;101139.61;127027;1278;107452;-74
2022/10/17 04:18:41;;;;;;;21.90;15.80;;;;;;;12.85;83.28;101147.05;126919;1288;107607;-75
2022/10/17 04:21:48;;;;;;;22.70;16.80;;;;;;;12.85;83.18;101146.17;126985;1279;107503;-75
2022/10/17 04:24:53;;;;;;;30.80;20.50;;;;;;;12.84;83.23;101149.95;126996;1282;106542;-75
2022/10/17 04:28:06;;;;;;;25.30;17.70;;;;;;;12.82;83.47;101164.98;127015;1278;107629;-75
2022/10/17 04:31:14;;;;;;;26.30;18.40;;;;;;;12.80;83.31;101167.20;126803;1276;107489;-75
2022/10/17 04:34:37;;;;;;;21.90;15.90;;;;;;;12.76;83.23;101166.45;126835;1277;107511;-74
2022/10/17 04:37:43;;;;;;;23.30;15.00;;;;;;;12.73;83.15;101173.31;126634;1279;107474;-75
2022/10/17 04:40:54;;;;;;;24.40;16.80;;;;;;;12.71;83.18;101182.45;126861;1279;108002;-75
2022/10/17 04:43:59;;;;;;;25.10;16.30;;;;;;;12.69;83.13;101184.21;127003;1278;107490;-75
2022/10/17 04:47:07;;;;;;;21.60;16.30;;;;;;;12.69;83.03;101179.12;126910;1279;107603;-75
2022/10/17 04:50:13;;;;;;;19.50;14.80;;;;;;;12.66;82.84;101177.77;126805;1278;107543;-75
2022/10/17 04:53:18;;;;;;;20.00;14.00;;;;;;;12.62;82.65;101180.52;126794;1286;107586;-75
2022/10/17 04:56:25;;;;;;;18.60;13.40;;;;;;;12.55;82.56;101179.98;126886;1279;107469;-74
2022/10/17 04:59:31;;;;;;;16.90;11.30;;;;;;;12.50;82.61;101189.63;126722;1286;106625;-75
2022/10/17 05:02:53;;;;;;;17.70;12.30;;;;;;;12.47;82.56;101180.39;126870;1279;107507;-74
2022/10/17 05:06:01;;;;;;;18.70;14.20;;;;;;;12.47;82.54;101169.34;126927;1279;107462;-74
2022/10/17 05:09:07;;;;;;;19.70;13.70;;;;;;;12.45;82.59;101169.02;127133;1272;107561;-75
2022/10/17 05:12:12;;;;;;;22.10;15.30;;;;;;;12.44;82.82;101172.27;126728;1288;107956;-74
2022/10/17 05:15:21;;;;;;;22.00;14.50;;;;;;;12.43;83.02;101172.41;126911;1271;107525;-74
2022/10/17 05:18:29;;;;;;;19.40;15.40;;;;;;;12.43;82.80;101172.27;126869;1278;107510;-74
2022/10/17 05:21:36;;;;;;;22.60;16.20;;;;;;;12.40;82.78;101180.31;126932;1278;107526;-74
2022/10/17 05:24:41;;;;;;;29.30;18.10;;;;;;;12.36;82.83;101193.90;127003;1278;106545;-75
2022/10/17 05:27:48;;;;;;;23.40;15.00;;;;;;;12.31;83.38;101203.10;126868;1279;108017;-74
2022/10/17 05:30:53;;;;;;;21.40;15.80;;;;;;;12.33;83.24;101212.91;126900;1278;107484;-74
2022/10/17 05:34:02;;;;;;;22.10;15.00;;;;;;;12.36;82.88;101208.68;126802;1286;107513;-74
2022/10/17 05:37:08;;;;;;;21.40;16.60;;;;;;;12.41;83.00;101212.56;126832;1281;107563;-74
2022/10/17 05:40:14;;;;;;;27.40;19.10;;;;;;;12.46;82.94;101221.59;127229;1286;107942;-75
2022/10/17 05:43:20;;;;;;;26.80;18.70;;;;;;;12.51;83.16;101230.71;126938;1280;107493;-75
2022/10/17 05:46:26;;;;;;;30.60;18.30;;;;;;;12.54;82.99;101234.70;126894;1279;107643;-75
2022/10/17 05:49:32;;;;;;;23.00;16.20;;;;;;;12.55;83.03;101236.17;126909;1272;106459;-73
2022/10/17 05:52:38;;;;;;;25.90;18.00;;;;;;;12.59;83.04;101240.66;126936;1285;107465;-74
2022/10/17 05:55:54;;;;;;;27.00;19.00;;;;;;;12.68;83.05;101245.25;126892;1295;107494;-73
2022/10/17 05:59:00;;;;;;;30.70;20.10;;;;;;;12.76;83.09;101248.95;126935;1295;107517;-75
2022/10/17 06:02:21;;;;;;;;;;;;;;;12.84;83.02;101247.84;126798;1296;107539;-75
2022/10/17 06:05:26;;;;;;;28.80;17.70;;;;;;;12.92;83.09;101255.33;126715;1282;107521;-79
2022/10/17 06:08:32;;;;;;;24.40;18.40;;;;;;;12.97;83.28;101247.11;126890;1279;107561;-78
2022/10/17 06:11:38;;;;;;;22.60;15.50;;;;;;;13.01;83.45;101248.73;126904;1279;107571;-78
2022/10/17 06:14:45;;;;;;;19.90;14.20;;;;;;;13.05;83.42;101256.04;127105;1279;107554;-76
2022/10/17 06:17:51;;;;;;;23.40;16.50;;;;;;;13.12;83.57;101258.75;126988;1278;107544;-76
2022/10/17 06:21:03;;;;;;;19.90;15.00;;;;;;;13.23;83.62;101259.55;127182;1279;107570;-77
2022/10/17 06:24:09;;;;;;;20.50;15.90;;;;;;;13.33;83.64;101261.27;127064;1287;107167;-76
2022/10/17 06:27:17;;;;;;;20.80;16.10;;;;;;;13.41;83.68;101265.92;126962;1279;107519;-74
2022/10/17 06:30:22;;;;;;;18.90;15.30;;;;;;;13.47;83.63;101265.30;126621;1282;106550;-74
2022/10/17 06:33:28;;;;;;;19.00;14.30;;;;;;;13.56;83.74;101258.02;127010;1278;107495;-77
2022/10/17 06:36:34;;;;;;;26.00;15.80;;;;;;;13.67;83.74;101257.54;126862;1279;107533;-78
2022/10/17 06:39:40;;;;;;;18.20;15.00;;;;;;;13.79;83.97;101259.19;126965;1278;107411;-78
2022/10/17 06:42:50;;;;;;;22.30;16.80;;;;;;;13.94;84.00;101260.47;127215;1279;107583;-78
2022/10/17 06:46:04;;;;;;;21.60;16.80;;;;;;;14.07;83.86;101259.17;127094;1278;107494;-77
2022/10/17 06:49:15;;;;;;;23.00;16.60;;;;;;;14.18;83.79;101256.84;126750;1289;107600;-78
2022/10/17 06:52:29;;;;;;;25.00;18.30;;;;;;;14.28;83.84;101256.23;126852;1285;108269;-78
2022/10/17 06:55:57;;;;;;;22.00;14.40;;;;;;;14.34;83.76;101262.00;126853;1279;107391;-78
2022/10/17 06:59:25;;;;;;;22.40;15.60;;;;;;;14.42;83.92;101271.10;126770;1278;107573;-78
2022/10/17 07:02:37;;;;;;;17.40;13.80;;;;;;;14.51;83.89;101267.10;126972;1278;107701;-77
2022/10/17 07:05:43;;;;;;;18.80;15.40;;;;;;;14.64;83.90;101269.43;126934;1272;107345;-80
2022/10/17 07:08:49;;;;;;;18.10;15.10;;;;;;;14.76;83.93;101271.81;126931;1279;107618;-79
2022/10/17 07:11:57;;;;;;;19.40;15.50;;;;;;;14.87;83.61;101280.73;126905;1276;108678;-79
2022/10/17 07:15:03;;;;;;;20.00;15.80;;;;;;;14.97;83.48;101283.86;126778;1279;107705;-78
2022/10/17 07:18:09;;;;;;;19.60;14.40;;;;;;;15.05;83.70;101292.66;126941;1279;107567;-78
2022/10/17 07:21:14;;;;;;;18.20;13.30;;;;;;;15.16;83.39;101293.06;126955;1279;107522;-78
2022/10/17 07:24:19;;;;;;;16.50;13.40;;;;;;;15.27;83.20;101290.59;126897;1286;106461;-79
2022/10/17 07:27:30;;;;;;;18.30;15.10;;;;;;;15.45;83.46;101286.45;126900;1281;107454;-78
2022/10/17 07:30:36;;;;;;;18.90;14.80;;;;;;;15.61;83.30;101284.27;126847;1279;107533;-78
2022/10/17 07:33:47;;;;;;;19.60;15.50;;;;;;;15.73;83.02;101283.15;127054;1278;107516;-79
2022/10/17 07:36:53;;;;;;;21.80;14.90;;;;;;;15.79;82.81;101283.52;126956;1285;107514;-79
2022/10/17 07:39:59;;;;;;;18.50;14.20;;;;;;;15.85;82.77;101289.30;126716;1289;107324;-78
2022/10/17 07:43:04;;;;;;;16.10;13.20;;;;;;;15.91;82.64;101293.61;126971;1286;107713;-79
2022/10/17 07:46:11;;;;;;;19.40;13.20;;;;;;;15.98;82.54;101297.73;126902;1279;107935;-79
2022/10/17 07:49:17;;;;;;;16.70;13.70;;;;;;;16.08;82.47;101301.26;126655;1286;107620;-79
2022/10/17 07:52:23;;;;;;;17.00;14.10;;;;;;;16.19;82.41;101301.35;127072;1278;107363;-77
2022/10/17 07:55:28;;;;;;;17.30;14.10;;;;;;;16.30;82.19;101303.36;127076;1285;107074;-78
2022/10/17 07:58:34;;;;;;;21.20;14.90;;;;;;;16.39;82.09;101304.90;126988;1288;107430;-76
2022/10/17 08:01:39;;;;;;;17.20;14.30;;;;;;;16.49;82.02;101307.04;126874;1278;107215;-77
2022/10/17 08:04:45;;;;;;;17.40;14.40;;;;;;;16.59;81.85;101309.41;127250;1280;107903;-76
2022/10/17 08:07:50;;;;;;;15.90;12.40;;;;;;;16.67;81.81;101313.23;126885;1286;107706;-76
2022/10/17 08:10:56;;;;;;;15.60;12.20;;;;;;;16.73;81.61;101313.09;127067;1278;107469;-77
2022/10/17 08:14:01;;;;;;;16.20;12.90;;;;;;;16.80;81.58;101314.98;127128;1279;107612;-76
2022/10/17 08:17:06;;;;;;;16.20;13.70;;;;;;;16.90;81.46;101319.49;127198;1280;107190;-79
2022/10/17 08:20:13;;;;;;;17.50;12.70;;;;;;;17.00;81.22;101322.32;127229;1280;107525;-79
2022/10/17 08:23:18;;;;;;;17.60;13.20;;;;;;;17.12;80.96;101327.84;127089;1279;107592;-80
2022/10/17 08:26:23;;;;;;;15.20;12.60;;;;;;;17.23;80.81;101331.91;127603;1286;107541;-80
2022/10/17 08:29:31;;;;;;;15.90;12.60;;;;;;;17.32;80.61;101327.08;127112;1279;107532;-80
2022/10/17 08:32:36;;;;;;;15.70;13.30;;;;;;;17.39;80.51;101323.42;127378;1286;107938;-77
2022/10/17 08:35:42;;;;;;;15.20;12.40;;;;;;;17.47;80.37;101327.05;126926;1285;106461;-80
2022/10/17 08:38:47;;;;;;;14.80;11.80;;;;;;;17.54;80.16;101328.59;126906;1279;107399;-77
2022/10/17 08:42:08;;;;;;;16.10;12.70;;;;;;;17.61;79.95;101325.27;126995;1279;107449;-79
2022/10/17 08:45:24;;;;;;;16.00;12.80;;;;;;;17.70;79.82;101330.98;127045;1286;107496;-78
2022/10/17 08:48:33;;;;;;;16.80;13.30;;;;;;;17.78;79.69;101328.24;127050;1279;107617;-77
2022/10/17 08:51:47;;;;;;;14.60;12.60;;;;;;;17.85;79.40;101329.09;127074;1288;106595;-76
2022/10/17 08:54:53;;;;;;;16.20;13.20;;;;;;;17.90;79.02;101327.83;127168;1285;107389;-76
2022/10/17 08:57:58;;;;;;;16.60;13.00;;;;;;;17.94;79.04;101325.63;127130;1278;107304;-76
2022/10/17 09:01:12;;;;;;;17.80;14.10;;;;;;;17.99;78.93;101323.73;126847;1283;107506;-76
2022/10/17 09:04:35;;;;;;;15.10;11.90;;;;;;;18.03;78.87;101320.00;126973;1286;107402;-76
2022/10/17 09:07:50;;;;;;;18.70;13.00;;;;;;;18.10;78.68;101313.70;126978;1278;107309;-75
2022/10/17 09:10:59;;;;;;;15.80;12.90;;;;;;;18.15;78.40;101314.51;126976;1276;107399;-80
2022/10/17 09:14:18;;;;;;;15.40;12.90;;;;;;;18.21;78.38;101311.27;126946;1279;107383;-80
2022/10/17 09:17:37;;;;;;;18.30;13.30;;;;;;;18.29;77.93;101311.42;126852;1286;107556;-82
2022/10/17 09:20:47;;;;;;;18.60;13.90;;;;;;;18.34;78.01;101309.14;127145;1282;108174;-85
2022/10/17 09:23:56;;;;;;;15.40;13.50;;;;;;;18.37;77.85;101308.20;127278;1277;107553;-80
2022/10/17 09:27:02;;;;;;;16.70;13.70;;;;;;;18.39;77.74;101310.66;127173;1280;107466;-85
2022/10/17 09:30:23;;;;;;;15.70;12.80;;;;;;;18.42;77.43;101312.79;127111;1286;107517;-74
2022/10/17 09:33:32;;;;;;;17.40;13.20;;;;;;;18.43;77.17;101310.36;127046;1286;107290;-77
2022/10/17 09:36:42;;;;;;;14.70;12.00;;;;;;;18.44;77.14;101311.63;127348;1286;107353;-83
2022/10/17 09:39:48;;;;;;;15.00;11.90;;;;;;;18.49;76.86;101311.04;127257;1280;108047;-83
2022/10/17 09:42:54;;;;;;;14.90;13.30;;;;;;;18.54;76.62;101307.83;127185;1286;107435;-83
2022/10/17 09:46:08;;;;;;;16.30;13.00;;;;;;;18.63;76.57;101307.31;127307;1280;107508;-83
2022/10/17 09:49:17;;;;;;;16.50;13.10;;;;;;;18.72;76.40;101306.67;127292;1286;107393;-84
2022/10/17 09:52:29;;;;;;;15.70;13.50;;;;;;;18.78;76.32;101307.31;127192;1284;107335;-83
2022/10/17 09:55:41;;;;;;;17.90;14.00;;;;;;;18.86;76.10;101301.29;127582;1271;107449;-83
2022/10/17 09:58:48;;;;;;;15.30;13.00;;;;;;;18.92;76.08;101294.54;127569;1295;106968;-83
2022/10/17 10:02:07;;;;;;;14.90;13.20;;;;;;;18.99;75.79;101296.98;127548;1278;107534;-83
2022/10/17 10:05:20;;;;;;;18.00;13.50;;;;;;;19.07;75.94;101294.27;127214;1280;106081;-83
2022/10/17 10:08:29;;;;;;;15.90;13.70;;;;;;;19.11;75.66;101289.23;127171;1278;107520;-83
2022/10/17 10:11:49;;;;;;;15.30;12.90;;;;;;;19.16;75.57;101289.41;127298;1286;107503;-83
2022/10/17 10:14:55;;;;;;;15.90;13.40;;;;;;;19.19;75.26;101282.08;127238;1286;107142;-82
2022/10/17 10:18:00;;;;;;;16.30;13.60;;;;;;;19.21;75.13;101284.39;127219;1283;107157;-81
2022/10/17 10:21:12;;;;;;;18.00;14.30;;;;;;;19.27;75.18;101283.22;127173;1286;107554;-79
2022/10/17 10:24:19;;;;;;;18.20;14.50;;;;;;;19.32;74.76;101285.50;127111;1280;106549;-84
2022/10/17 10:27:30;;;;;;;21.30;14.80;;;;;;;19.35;74.69;101279.20;127442;1286;107340;-81
2022/10/17 10:30:36;;;;;;;18.20;14.40;;;;;;;19.38;74.64;101274.46;127158;1286;107334;-79
2022/10/17 10:33:44;;;;;;;16.80;14.20;;;;;;;19.42;74.53;101274.27;126897;1280;107396;-77
2022/10/17 10:36:58;;;;;;;17.20;14.10;;;;;;;19.43;74.34;101273.46;126891;1286;107489;-77
2022/10/17 10:40:06;;;;;;;18.10;13.70;;;;;;;19.44;74.31;101276.81;126849;1278;108138;-77
2022/10/17 10:43:24;;;;;;;18.30;14.40;;;;;;;19.45;74.25;101278.86;127148;1279;106245;-77
2022/10/17 10:46:30;;;;;;;25.00;15.40;;;;;;;19.44;74.19;101282.55;126988;1280;107542;-77
2022/10/17 10:49:36;;;;;;;18.80;15.90;;;;;;;19.47;74.26;101284.59;127128;1279;106168;-79
2022/10/17 10:52:47;;;;;;;17.20;15.00;;;;;;;19.49;74.01;101280.29;127089;1286;106277;-77
2022/10/17 10:55:56;;;;;;;22.40;14.60;;;;;;;19.52;73.86;101274.55;126871;1286;107413;-76
2022/10/17 10:59:07;;;;;;;17.40;13.90;;;;;;;19.56;73.76;101273.73;126942;1293;107466;-77
2022/10/17 11:02:19;;;;;;;18.10;14.70;;;;;;;19.63;73.77;101278.82;126968;1286;107570;-79
2022/10/17 11:05:27;;;;;;;;;;;;;;;19.70;73.49;101276.54;126877;1278;107346;-78
2022/10/17 11:08:38;;;;;;;15.90;13.40;;;;;;;19.76;73.34;101275.81;126932;1276;107599;-76
2022/10/17 11:11:48;;;;;;;17.40;14.90;;;;;;;19.82;73.16;101274.39;127069;1275;107506;-80
2022/10/17 11:14:59;;;;;;;18.40;14.10;;;;;;;19.87;73.12;101271.04;127176;1285;106608;-76
2022/10/17 11:18:07;;;;;;;16.50;14.50;;;;;;;19.93;73.11;101266.90;127049;1275;108110;-77
2022/10/17 11:21:19;;;;;;;17.20;15.00;;;;;;;19.96;72.92;101260.69;126936;1285;107741;-73
2022/10/17 11:24:29;;;;;;;16.90;14.80;;;;;;;19.98;72.85;101261.54;126869;1285;107416;-76
2022/10/17 11:27:35;;;;;;;18.50;14.90;;;;;;;19.99;72.60;101264.77;126979;1285;107518;-73
2022/10/17 11:30:47;;;;;;;15.80;14.10;;;;;;;19.97;72.53;101267.36;126938;1279;107486;-74
2022/10/17 11:33:55;;;;;;;17.00;14.00;;;;;;;19.95;72.51;101266.77;127080;1295;107481;-75
2022/10/17 11:37:05;;;;;;;15.20;13.20;;;;;;;19.97;72.55;101263.02;127147;1280;105700;-76
2022/10/17 11:40:18;;;;;;;17.20;14.00;;;;;;;20.01;72.52;101266.20;127093;1278;107322;-78
2022/10/17 11:43:28;;;;;;;15.80;13.70;;;;;;;20.05;72.47;101265.20;126893;1291;107564;-78
2022/10/17 11:46:37;;;;;;;16.30;13.00;;;;;;;20.08;72.12;101272.92;127113;1286;109263;-75
2022/10/17 11:49:49;;;;;;;19.80;14.20;;;;;;;20.13;71.94;101271.29;127846;1294;107395;-74
2022/10/17 11:52:59;;;;;;;14.80;12.50;;;;;;;20.20;72.27;101264.45;127269;1295;106460;-74
2022/10/17 11:56:05;;;;;;;16.70;13.30;;;;;;;20.29;71.96;101264.72;126981;1286;106661;-75
2022/10/17 11:59:31;;;;;;;16.30;14.00;;;;;;;20.34;71.51;101259.39;126910;1286;106390;-74
2022/10/17 12:02:43;;;;;;;16.60;13.50;;;;;;;20.37;71.45;101255.45;126912;1295;107329;-76
2022/10/17 12:05:56;;;;;;;15.80;13.20;;;;;;;20.38;71.50;101255.39;127158;1284;106597;-72
2022/10/17 12:09:10;;;;;;;17.20;13.20;;;;;;;20.41;71.47;101256.91;127165;1280;106701;-72
2022/10/17 12:12:26;;;;;;;17.40;13.10;;;;;;;20.44;71.42;101260.86;126919;1286;107441;-75
2022/10/17 12:15:32;;;;;;;17.20;13.30;;;;;;;20.46;71.27;101260.70;126921;1280;107428;-76
2022/10/17 12:18:38;;;;;;;18.60;14.00;;;;;;;20.45;70.96;101257.66;126957;1280;107937;-78
2022/10/17 12:22:03;;;;;;;14.80;13.20;;;;;;;20.45;70.97;101252.82;126835;1278;107501;-76
2022/10/17 12:25:21;;;;;;;16.80;13.50;;;;;;;20.44;70.81;101253.98;126929;1284;105848;-78
2022/10/17 12:28:43;;;;;;;15.00;13.00;;;;;;;20.43;70.70;101249.77;126917;1286;107284;-80
2022/10/17 12:31:49;;;;;;;16.80;12.60;;;;;;;20.43;70.75;101244.96;126906;1286;107543;-80
2022/10/17 12:34:56;;;;;;;17.40;14.00;;;;;;;20.43;70.73;101244.96;127023;1291;105850;-77
2022/10/17 12:38:19;;;;;;;17.60;13.50;;;;;;;20.43;70.61;101241.00;127413;1286;107444;-76
2022/10/17 12:41:55;;;;;;;14.90;13.30;;;;;;;20.43;70.50;101232.29;127334;1279;107461;-76
2022/10/17 12:45:01;;;;;;;15.20;13.20;;;;;;;20.43;70.50;101230.70;127136;1283;107558;-74
2022/10/17 12:48:10;;;;;;;17.00;13.30;;;;;;;20.43;70.44;101231.61;126948;1284;107525;-74
2022/10/17 12:51:17;;;;;;;15.90;13.20;;;;;;;20.42;70.37;101233.92;126913;1271;105859;-74
2022/10/17 12:54:24;;;;;;;16.80;13.70;;;;;;;20.39;70.22;101238.14;126965;1278;107379;-74
2022/10/17 12:57:34;;;;;;;15.70;13.20;;;;;;;20.39;70.25;101236.04;126937;1279;107434;-73
2022/10/17 13:00:50;;;;;;;16.30;13.60;;;;;;;20.40;70.21;101237.27;127131;1280;106721;-75
2022/10/17 13:03:57;;;;;;;14.60;12.90;;;;;;;20.42;70.21;101237.31;126937;1285;107402;-73
2022/10/17 13:07:03;;;;;;;16.10;13.20;;;;;;;20.43;70.08;101239.12;126992;1284;107264;-77
2022/10/17 13:10:21;;;;;;;16.30;13.30;;;;;;;20.45;70.01;101235.67;126995;1278;107282;-79
2022/10/17 13:13:36;;;;;;;17.00;13.80;;;;;;;20.46;69.86;101231.34;126859;1289;107381;-77
2022/10/17 13:16:52;;;;;;;16.80;14.20;;;;;;;20.45;69.89;101228.09;126969;1275;107198;-79
2022/10/17 13:19:58;;;;;;;16.30;13.50;;;;;;;20.41;69.67;101224.72;126943;1285;106634;-79
2022/10/17 13:23:03;;;;;;;16.80;12.90;;;;;;;20.39;69.81;101224.28;126842;1296;107551;-76
2022/10/17 13:26:18;;;;;;;15.20;12.90;;;;;;;20.37;69.84;101218.38;126993;1278;107456;-78
2022/10/17 13:29:27;;;;;;;17.90;14.70;;;;;;;20.33;69.88;101214.73;126986;1286;107371;-78
2022/10/17 13:32:39;;;;;;;15.50;12.50;;;;;;;20.29;69.89;101211.46;127036;1284;107300;-80
2022/10/17 13:35:47;;;;;;;17.60;13.50;;;;;;;20.27;69.86;101213.83;126878;1286;107504;-77
2022/10/17 13:38:52;;;;;;;15.80;12.80;;;;;;;20.27;69.90;101217.71;126922;1279;107140;-76
2022/10/17 13:41:59;;;;;;;14.80;12.90;;;;;;;20.28;69.85;101212.16;127017;1285;107359;-77
2022/10/17 13:45:13;;;;;;;17.10;13.30;;;;;;;20.28;69.79;101211.53;126890;1286;106511;-80
2022/10/17 13:48:24;;;;;;;15.00;12.30;;;;;;;20.27;69.67;101205.78;126884;1292;107252;-75
2022/10/17 13:51:31;;;;;;;14.90;13.20;;;;;;;20.26;69.73;101207.61;126963;1286;106588;-77
2022/10/17 13:54:39;;;;;;;16.00;13.50;;;;;;;20.25;69.67;101208.69;126971;1285;106368;-78
2022/10/17 13:57:46;;;;;;;16.40;13.20;;;;;;;20.24;69.81;101203.58;126957;1285;107405;-77
2022/10/17 14:00:52;;;;;;;15.80;12.60;;;;;;;20.23;69.82;101204.45;126905;1286;107546;-77